Time;durP1;ratioP1;P1;durP2;ratioP2;P2;SDS_P1;SDS_P2;PMS_P1;PMS_P2;Temp;Humidity;BMP_temperature;BMP_pressure;BME280_temperature;BME280_humidity;BME280_pressure;Samples;Min_cycle;Max_cycle;Signal;HPM_P1;HPM_P2
2023/04/17 00:01:27;;;;;;;4.22;3.35;;;;;;;;;;4851099;29;20053;-80
2023/04/17 00:03:56;;;;;;;3.47;3.20;;;;;;;;;;4843184;29;20122;-80
2023/04/17 00:06:26;;;;;;;3.95;3.42;;;;;;;;;;4857096;29;20068;-80
2023/04/17 00:08:53;;;;;;;4.45;3.38;;;;;;;;;;4855446;29;20060;-78
2023/04/17 00:11:21;;;;;;;3.55;3.22;;;;;;;;;;4868068;29;20053;-79
2023/04/17 00:13:48;;;;;;;3.20;3.00;;;;;;;;;;4853757;29;20489;-79
2023/04/17 00:16:16;;;;;;;4.75;3.20;;;;;;;;;;4849892;29;20049;-81
2023/04/17 00:18:43;;;;;;;3.95;3.45;;;;;;;;;;4849996;29;20076;-78
2023/04/17 00:21:10;;;;;;;3.85;3.35;;;;;;;;;;4853059;29;20052;-79
2023/04/17 00:23:38;;;;;;;3.92;3.53;;;;;;;;;;4851816;29;20158;-79
2023/04/17 00:26:05;;;;;;;5.97;3.83;;;;;;;;;;4842162;29;20114;-80
2023/04/17 00:28:33;;;;;;;3.65;3.35;;;;;;;;;;4851228;29;20049;-79
2023/04/17 00:31:00;;;;;;;4.07;3.70;;;;;;;;;;4851119;29;20432;-80
2023/04/17 00:33:28;;;;;;;3.65;3.35;;;;;;;;;;4859385;29;20044;-78
2023/04/17 00:35:55;;;;;;;6.40;3.33;;;;;;;;;;4848787;29;20122;-82
2023/04/17 00:38:22;;;;;;;3.47;3.13;;;;;;;;;;4851586;29;20054;-81
2023/04/17 00:40:50;;;;;;;3.03;2.83;;;;;;;;;;4850293;29;20064;-79
2023/04/17 00:43:18;;;;;;;4.35;3.30;;;;;;;;;;4848618;29;20133;-79
2023/04/17 00:45:47;;;;;;;3.80;3.38;;;;;;;;;;4846045;29;20054;-79
2023/04/17 00:48:14;;;;;;;3.75;3.25;;;;;;;;;;4861309;29;20058;-78
2023/04/17 00:50:43;;;;;;;3.25;3.00;;;;;;;;;;4842123;29;20057;-80
2023/04/17 00:53:11;;;;;;;3.35;3.05;;;;;;;;;;4849792;29;20049;-79
2023/04/17 00:55:39;;;;;;;3.92;3.53;;;;;;;;;;4849588;29;20157;-79
2023/04/17 00:58:07;;;;;;;3.70;3.40;;;;;;;;;;4845974;29;20572;-78
2023/04/17 01:00:34;;;;;;;3.72;3.33;;;;;;;;;;4845905;29;20042;-81
2023/04/17 01:03:02;;;;;;;3.70;3.40;;;;;;;;;;4857827;29;20521;-80
2023/04/17 01:05:30;;;;;;;3.60;3.30;;;;;;;;;;4854542;29;21543;-79
2023/04/17 01:07:58;;;;;;;3.88;3.58;;;;;;;;;;4846976;29;20050;-78
2023/04/17 01:10:25;;;;;;;35.47;15.50;;;;;;;;;;4852519;29;20057;-80
2023/04/17 01:13:02;;;;;;;5.18;3.30;;;;;;;;;;4857298;29;20136;-78
2023/04/17 01:15:30;;;;;;;4.22;3.33;;;;;;;;;;4851539;29;20148;-79
2023/04/17 01:17:58;;;;;;;3.88;3.30;;;;;;;;;;4854420;29;20129;-79
2023/04/17 01:20:29;;;;;;;4.40;4.00;;;;;;;;;;4853489;29;20059;-79
2023/04/17 01:22:58;;;;;;;3.92;3.60;;;;;;;;;;4853802;29;20053;-79
2023/04/17 01:25:25;;;;;;;4.00;3.55;;;;;;;;;;4858964;29;20528;-81
2023/04/17 01:27:53;;;;;;;3.60;3.30;;;;;;;;;;4844241;29;20064;-79
2023/04/17 01:30:21;;;;;;;3.65;3.35;;;;;;;;;;4851495;29;20137;-81
2023/04/17 01:33:00;;;;;;;3.28;3.08;;;;;;;;;;4851432;29;20049;-78
2023/04/17 01:35:28;;;;;;;3.35;3.05;;;;;;;;;;4852285;29;20489;-80
2023/04/17 01:37:55;;;;;;;3.30;3.00;;;;;;;;;;4858415;29;20104;-81
2023/04/17 01:40:22;;;;;;;3.58;3.28;;;;;;;;;;4868856;29;20514;-80
2023/04/17 01:42:50;;;;;;;4.70;4.20;;;;;;;;;;4860196;29;20081;-79
2023/04/17 01:45:41;;;;;;;7.35;3.90;;;;;;;;;;4854102;29;20486;-79
2023/04/17 01:48:10;;;;;;;4.57;3.97;;;;;;;;;;4857789;29;20100;-79
2023/04/17 01:50:38;;;;;;;6.07;4.07;;;;;;;;;;4848339;29;21632;-78
2023/04/17 01:53:06;;;;;;;4.22;3.83;;;;;;;;;;4860420;29;20046;-80
2023/04/17 01:55:33;;;;;;;5.28;4.45;;;;;;;;;;4867578;29;20139;-81
2023/04/17 01:58:00;;;;;;;3.88;3.58;;;;;;;;;;4865314;29;20509;-79
2023/04/17 02:00:28;;;;;;;7.20;3.70;;;;;;;;;;4864518;29;20085;-78
2023/04/17 02:02:56;;;;;;;3.97;3.58;;;;;;;;;;4850918;29;20080;-81
2023/04/17 02:05:23;;;;;;;4.72;3.92;;;;;;;;;;4841424;29;20414;-79
2023/04/17 02:07:50;;;;;;;4.22;3.75;;;;;;;;;;4863534;29;20048;-81
2023/04/17 02:10:18;;;;;;;3.65;3.35;;;;;;;;;;4870864;29;20080;-80
2023/04/17 02:12:45;;;;;;;3.53;3.22;;;;;;;;;;4860077;29;20053;-79
2023/04/17 02:15:13;;;;;;;3.90;3.35;;;;;;;;;;4851772;29;20057;-80
2023/04/17 02:17:40;;;;;;;4.15;3.75;;;;;;;;;;4856706;29;20046;-78
2023/04/17 02:20:10;;;;;;;3.92;3.63;;;;;;;;;;4859496;29;20054;-79
2023/04/17 02:22:37;;;;;;;3.88;3.58;;;;;;;;;;4851524;29;20058;-80
2023/04/17 02:25:05;;;;;;;4.13;3.83;;;;;;;;;;4849377;29;20484;-81
2023/04/17 02:27:32;;;;;;;4.07;3.78;;;;;;;;;;4849852;29;20073;-78
2023/04/17 02:29:59;;;;;;;3.90;3.38;;;;;;;;;;4850146;29;20058;-80
2023/04/17 02:32:27;;;;;;;4.32;3.90;;;;;;;;;;4856139;29;20128;-80
2023/04/17 02:34:55;;;;;;;3.67;3.38;;;;;;;;;;4856737;29;20056;-80
2023/04/17 02:37:23;;;;;;;4.53;3.50;;;;;;;;;;4857505;29;20052;-79
2023/04/17 02:39:52;;;;;;;4.07;3.67;;;;;;;;;;4860727;29;20721;-79
2023/04/17 02:42:19;;;;;;;5.70;4.07;;;;;;;;;;4838387;29;20042;-79
2023/04/17 02:44:46;;;;;;;4.38;3.97;;;;;;;;;;4848567;29;20416;-79
2023/04/17 02:47:14;;;;;;;4.82;4.32;;;;;;;;;;4844561;29;20045;-81
2023/04/17 02:49:41;;;;;;;4.45;4.07;;;;;;;;;;4851280;29;20060;-79
2023/04/17 02:52:09;;;;;;;4.25;3.95;;;;;;;;;;4855033;29;20081;-80
2023/04/17 02:54:36;;;;;;;4.75;3.90;;;;;;;;;;4861974;29;20564;-79
2023/04/17 02:57:05;;;;;;;3.88;3.55;;;;;;;;;;4851435;29;20060;-81
2023/04/17 02:59:32;;;;;;;4.53;4.13;;;;;;;;;;4858977;29;20525;-79
2023/04/17 03:02:00;;;;;;;4.35;3.95;;;;;;;;;;4847595;29;20519;-79
2023/04/17 03:04:27;;;;;;;4.13;3.72;;;;;;;;;;4856913;29;20057;-80
2023/04/17 03:06:55;;;;;;;7.28;4.15;;;;;;;;;;4842676;29;20081;-78
2023/04/17 03:09:23;;;;;;;4.45;3.97;;;;;;;;;;4868008;29;20060;-79
2023/04/17 03:11:51;;;;;;;5.60;3.85;;;;;;;;;;4861323;29;20514;-79
2023/04/17 03:14:18;;;;;;;6.00;4.18;;;;;;;;;;4863474;29;20049;-81
2023/04/17 03:16:46;;;;;;;3.92;3.63;;;;;;;;;;4856617;29;20049;-80
2023/04/17 03:19:13;;;;;;;4.63;3.90;;;;;;;;;;4861062;29;20065;-79
2023/04/17 03:21:41;;;;;;;4.78;4.38;;;;;;;;;;4852505;29;20054;-80
2023/04/17 03:24:11;;;;;;;4.07;3.67;;;;;;;;;;4853849;29;20143;-78
2023/04/17 03:26:39;;;;;;;4.80;4.20;;;;;;;;;;4845659;29;20149;-81
2023/04/17 03:29:12;;;;;;;4.28;3.88;;;;;;;;;;4856553;29;20060;-80
2023/04/17 03:31:41;;;;;;;4.95;3.92;;;;;;;;;;4851393;29;20062;-82
2023/04/17 03:34:08;;;;;;;4.60;3.92;;;;;;;;;;4849502;29;20432;-79
2023/04/17 03:36:36;;;;;;;4.25;3.90;;;;;;;;;;4849735;29;20132;-80
2023/04/17 03:39:03;;;;;;;4.43;3.90;;;;;;;;;;4856333;29;20124;-79
2023/04/17 03:41:31;;;;;;;4.30;3.90;;;;;;;;;;4853474;29;20076;-81
2023/04/17 03:43:59;;;;;;;5.55;4.38;;;;;;;;;;4855714;29;20052;-79
2023/04/17 03:46:28;;;;;;;5.05;4.40;;;;;;;;;;4841961;29;20069;-79
2023/04/17 03:48:56;;;;;;;4.85;4.45;;;;;;;;;;4858196;29;20080;-78
2023/04/17 03:51:23;;;;;;;5.38;4.57;;;;;;;;;;4850341;29;20053;-80
2023/04/17 03:53:52;;;;;;;5.32;4.55;;;;;;;;;;4850885;29;20417;-77
2023/04/17 03:56:20;;;;;;;4.35;3.95;;;;;;;;;;4849320;29;20050;-78
2023/04/17 03:58:48;;;;;;;4.40;4.00;;;;;;;;;;4849712;29;20072;-81
2023/04/17 04:01:17;;;;;;;4.55;4.13;;;;;;;;;;4846402;29;20646;-80
2023/04/17 04:04:11;;;;;;;9.10;4.82;;;;;;;;;;4856455;29;20049;-79
2023/04/17 04:06:41;;;;;;;5.35;4.60;;;;;;;;;;4855489;29;20328;-83
2023/04/17 04:09:16;;;;;;;10.55;4.53;;;;;;;;;;4855560;29;20092;-80
2023/04/17 04:11:54;;;;;;;5.20;4.57;;;;;;;;;;4853929;29;20072;-82
2023/04/17 04:14:22;;;;;;;10.65;4.47;;;;;;;;;;4863381;29;20081;-82
2023/04/17 04:16:49;;;;;;;8.15;5.28;;;;;;;;;;4856847;29;20130;-78
2023/04/17 04:19:17;;;;;;;8.68;4.70;;;;;;;;;;4851905;29;20125;-79
2023/04/17 04:21:44;;;;;;;9.50;4.70;;;;;;;;;;4848758;29;20580;-79
2023/04/17 04:24:13;;;;;;;8.32;4.80;;;;;;;;;;4852761;29;20053;-81
2023/04/17 04:26:42;;;;;;;9.13;4.55;;;;;;;;;;4861287;29;20152;-79
2023/04/17 04:29:10;;;;;;;4.72;4.28;;;;;;;;;;4847143;29;20084;-79
2023/04/17 04:31:53;;;;;;;15.18;6.30;;;;;;;;;;4848079;29;20063;-79
2023/04/17 04:34:28;;;;;;;4.93;4.53;;;;;;;;;;4843851;29;20144;-79
2023/04/17 04:36:56;;;;;;;6.38;4.78;;;;;;;;;;4842311;29;20172;-81
2023/04/17 04:39:36;;;;;;;5.35;4.85;;;;;;;;;;4851865;29;20049;-81
2023/04/17 04:42:08;;;;;;;5.50;5.00;;;;;;;;;;4849558;29;20042;-79
2023/04/17 04:44:48;;;;;;;5.85;4.60;;;;;;;;;;4845960;29;20049;-81
2023/04/17 04:47:18;;;;;;;5.63;5.03;;;;;;;;;;4848314;29;20061;-79
2023/04/17 04:49:48;;;;;;;6.00;5.15;;;;;;;;;;4836931;29;20273;-78
2023/04/17 04:52:19;;;;;;;5.97;4.72;;;;;;;;;;4848479;29;20064;-81
2023/04/17 04:54:48;;;;;;;5.85;5.10;;;;;;;;;;4843681;29;20663;-82
2023/04/17 04:57:16;;;;;;;8.80;5.93;;;;;;;;;;4848528;29;20061;-79
2023/04/17 04:59:46;;;;;;;6.90;6.10;;;;;;;;;;4849251;29;20078;-79
2023/04/17 05:02:28;;;;;;;9.63;6.57;;;;;;;;;;4840596;29;20101;-79
2023/04/17 05:05:00;;;;;;;9.07;6.63;;;;;;;;;;4853058;29;20049;-79
2023/04/17 05:07:30;;;;;;;15.35;6.95;;;;;;;;;;4854084;29;20481;-79
2023/04/17 05:09:58;;;;;;;16.15;7.95;;;;;;;;;;4852104;29;20102;-81
2023/04/17 05:12:30;;;;;;;15.95;8.23;;;;;;;;;;4855429;29;20081;-79
2023/04/17 05:14:57;;;;;;;11.15;8.25;;;;;;;;;;4845608;29;20046;-79
2023/04/17 05:17:25;;;;;;;11.48;8.65;;;;;;;;;;4854247;29;20517;-79
2023/04/17 05:19:52;;;;;;;12.40;7.88;;;;;;;;;;4857449;29;20120;-79
2023/04/17 05:22:21;;;;;;;10.10;7.53;;;;;;;;;;4848330;29;20473;-81
2023/04/17 05:25:03;;;;;;;10.75;7.10;;;;;;;;;;4857442;29;20054;-80
2023/04/17 05:27:31;;;;;;;9.10;7.18;;;;;;;;;;4857007;29;20077;-81
2023/04/17 05:29:59;;;;;;;9.75;7.40;;;;;;;;;;4861554;29;20071;-80
2023/04/17 05:32:29;;;;;;;13.45;7.50;;;;;;;;;;4840234;29;20160;-81
2023/04/17 05:35:00;;;;;;;9.77;7.75;;;;;;;;;;4847403;29;20177;-78
2023/04/17 05:37:29;;;;;;;13.65;8.75;;;;;;;;;;4845271;29;20465;-78
2023/04/17 05:39:59;;;;;;;10.48;7.78;;;;;;;;;;4852289;29;20053;-78
2023/04/17 05:42:28;;;;;;;9.40;7.90;;;;;;;;;;4850964;29;20045;-79
2023/04/17 05:44:55;;;;;;;13.90;9.02;;;;;;;;;;4848912;29;20054;-81
2023/04/17 05:47:23;;;;;;;15.77;8.82;;;;;;;;;;4852523;29;20145;-79
2023/04/17 05:49:56;;;;;;;13.23;8.90;;;;;;;;;;4852570;29;20386;-79
2023/04/17 05:52:27;;;;;;;16.80;10.00;;;;;;;;;;4849166;29;20053;-82
2023/04/17 05:54:55;;;;;;;17.63;9.48;;;;;;;;;;4852874;29;20049;-81
2023/04/17 05:57:23;;;;;;;13.38;9.52;;;;;;;;;;4843019;29;20098;-79
2023/04/17 05:59:52;;;;;;;14.13;9.70;;;;;;;;;;4844700;29;20686;-78
2023/04/17 06:02:19;;;;;;;21.75;10.50;;;;;;;;;;4844481;29;20441;-80
2023/04/17 06:04:47;;;;;;;13.68;9.80;;;;;;;;;;4830138;29;20049;-80
2023/04/17 06:07:15;;;;;;;15.50;10.07;;;;;;;;;;4843453;29;20734;-79
2023/04/17 06:09:42;;;;;;;15.20;9.90;;;;;;;;;;4844818;29;20153;-81
2023/04/17 06:12:14;;;;;;;14.45;10.45;;;;;;;;;;4840596;29;20988;-81
2023/04/17 06:14:44;;;;;;;15.00;10.15;;;;;;;;;;4854125;29;20097;-80
2023/04/17 06:17:13;;;;;;;15.90;10.60;;;;;;;;;;4850994;29;20080;-79
2023/04/17 06:19:41;;;;;;;20.75;11.95;;;;;;;;;;4853222;29;20053;-80
2023/04/17 06:22:08;;;;;;;16.30;10.88;;;;;;;;;;4843709;29;20050;-79
2023/04/17 06:24:36;;;;;;;17.58;10.55;;;;;;;;;;4853041;29;20061;-79
2023/04/17 06:27:03;;;;;;;17.48;11.82;;;;;;;;;;4854322;29;20058;-79
2023/04/17 06:29:30;;;;;;;16.15;11.05;;;;;;;;;;4855757;29;20121;-79
2023/04/17 06:31:58;;;;;;;21.58;12.10;;;;;;;;;;4851663;29;20077;-79
2023/04/17 06:34:26;;;;;;;14.95;10.23;;;;;;;;;;4847122;29;20049;-78
2023/04/17 06:36:54;;;;;;;14.20;10.13;;;;;;;;;;4849662;29;20045;-80
2023/04/17 06:39:22;;;;;;;13.85;10.05;;;;;;;;;;4852773;29;20064;-78
2023/04/17 06:41:50;;;;;;;14.23;9.88;;;;;;;;;;4852422;29;20049;-79
2023/04/17 06:44:25;;;;;;;12.90;10.15;;;;;;;;;;4850742;29;20164;-79
2023/04/17 06:46:54;;;;;;;14.40;10.52;;;;;;;;;;4848092;29;20056;-82
2023/04/17 06:49:21;;;;;;;16.02;10.38;;;;;;;;;;4847002;29;20060;-80
2023/04/17 06:51:50;;;;;;;15.85;10.02;;;;;;;;;;4850183;29;20060;-79
2023/04/17 06:54:17;;;;;;;14.45;10.98;;;;;;;;;;4846191;29;20128;-79
2023/04/17 06:56:45;;;;;;;16.13;11.20;;;;;;;;;;4851832;29;20227;-78
2023/04/17 06:59:12;;;;;;;13.27;10.60;;;;;;;;;;4853095;29;20377;-79
2023/04/17 07:01:41;;;;;;;14.27;10.43;;;;;;;;;;4851437;29;20129;-79
2023/04/17 07:04:09;;;;;;;17.73;11.40;;;;;;;;;;4851685;29;20049;-79
2023/04/17 07:06:38;;;;;;;15.45;10.45;;;;;;;;;;4852463;29;20053;-79
2023/04/17 07:09:05;;;;;;;15.65;10.55;;;;;;;;;;4853537;29;20212;-80
2023/04/17 07:11:33;;;;;;;14.55;11.10;;;;;;;;;;4849119;29;20058;-81
2023/04/17 07:14:00;;;;;;;15.15;10.63;;;;;;;;;;4851272;29;20136;-81
2023/04/17 07:16:28;;;;;;;14.73;10.65;;;;;;;;;;4849422;29;20077;-81
2023/04/17 07:18:55;;;;;;;16.38;11.30;;;;;;;;;;4846663;29;20428;-79
2023/04/17 07:21:23;;;;;;;15.18;12.40;;;;;;;;;;4851811;29;20045;-80
2023/04/17 07:23:50;;;;;;;15.73;11.57;;;;;;;;;;4853959;29;20316;-81
2023/04/17 07:26:18;;;;;;;16.13;10.80;;;;;;;;;;4849247;29;20057;-79
2023/04/17 07:28:45;;;;;;;16.15;11.57;;;;;;;;;;4850880;29;20057;-80
2023/04/17 07:31:13;;;;;;;17.95;11.60;;;;;;;;;;4852364;29;20048;-82
2023/04/17 07:33:40;;;;;;;16.58;10.85;;;;;;;;;;4852544;29;20053;-79
2023/04/17 07:36:10;;;;;;;11.60;10.32;;;;;;;;;;4852350;29;20105;-80
2023/04/17 07:38:37;;;;;;;12.27;9.93;;;;;;;;;;4852824;29;20053;-81
2023/04/17 07:41:07;;;;;;;11.77;10.15;;;;;;;;;;4852682;29;20056;-79
2023/04/17 07:43:35;;;;;;;13.13;9.90;;;;;;;;;;4853458;29;20050;-79
2023/04/17 07:46:02;;;;;;;14.55;11.63;;;;;;;;;;4852017;29;20053;-77
2023/04/17 07:48:30;;;;;;;18.25;12.50;;;;;;;;;;4852787;29;20053;-81
2023/04/17 07:51:01;;;;;;;13.93;12.15;;;;;;;;;;4852326;29;20101;-81
2023/04/17 07:53:29;;;;;;;13.90;10.93;;;;;;;;;;4856619;29;20049;-79
2023/04/17 07:55:57;;;;;;;11.18;9.25;;;;;;;;;;4851763;29;20559;-80
2023/04/17 07:58:25;;;;;;;11.52;9.52;;;;;;;;;;4851528;29;20133;-82
2023/04/17 08:00:53;;;;;;;14.65;10.00;;;;;;;;;;4846606;29;20106;-80
2023/04/17 08:03:20;;;;;;;21.17;10.73;;;;;;;;;;4848079;29;20708;-80
2023/04/17 08:05:48;;;;;;;10.98;9.43;;;;;;;;;;4848193;29;20068;-81
2023/04/17 08:08:16;;;;;;;14.45;9.85;;;;;;;;;;4846182;29;20057;-81
2023/04/17 08:10:43;;;;;;;12.77;9.70;;;;;;;;;;4861793;29;20052;-82
2023/04/17 08:13:10;;;;;;;17.13;10.18;;;;;;;;;;4857737;29;20060;-80
2023/04/17 08:15:39;;;;;;;12.93;9.45;;;;;;;;;;4860261;29;20050;-80
2023/04/17 08:18:08;;;;;;;13.40;9.95;;;;;;;;;;4854697;29;20084;-79
2023/04/17 08:20:36;;;;;;;21.33;16.98;;;;;;;;;;4865655;29;20113;-81
2023/04/17 08:23:03;;;;;;;11.15;9.95;;;;;;;;;;4852840;29;20041;-80
2023/04/17 08:25:31;;;;;;;15.10;10.65;;;;;;;;;;4844676;29;20054;-80
2023/04/17 08:27:58;;;;;;;12.23;9.70;;;;;;;;;;4853244;29;20148;-80
2023/04/17 08:30:26;;;;;;;11.02;9.85;;;;;;;;;;4858172;29;20130;-80
2023/04/17 08:32:54;;;;;;;10.20;9.20;;;;;;;;;;4857411;29;20054;-80
2023/04/17 08:35:22;;;;;;;12.38;9.90;;;;;;;;;;4864567;29;20042;-80
2023/04/17 08:37:49;;;;;;;13.25;9.65;;;;;;;;;;4855793;29;20086;-80
2023/04/17 08:40:17;;;;;;;10.20;8.75;;;;;;;;;;4860215;29;20057;-82
2023/04/17 08:42:46;;;;;;;10.65;9.55;;;;;;;;;;4860148;29;20060;-82
2023/04/17 08:45:15;;;;;;;13.43;9.60;;;;;;;;;;4852262;29;20511;-79
2023/04/17 08:47:43;;;;;;;11.88;9.38;;;;;;;;;;4849288;29;20050;-79
2023/04/17 08:50:10;;;;;;;10.93;9.70;;;;;;;;;;4852567;29;20201;-79
2023/04/17 08:52:38;;;;;;;12.32;9.23;;;;;;;;;;4853675;29;20075;-80
2023/04/17 08:55:06;;;;;;;22.42;11.93;;;;;;;;;;4858631;29;20467;-80
2023/04/17 08:57:33;;;;;;;9.52;7.78;;;;;;;;;;4853190;29;20285;-81
2023/04/17 09:00:10;;;;;;;10.32;9.23;;;;;;;;;;4852680;29;20050;-80
2023/04/17 09:02:53;;;;;;;11.48;9.30;;;;;;;;;;4862790;29;20057;-81
2023/04/17 09:05:22;;;;;;;11.35;9.27;;;;;;;;;;4849660;29;20081;-82
2023/04/17 09:07:50;;;;;;;10.95;9.20;;;;;;;;;;4855595;29;20504;-82
2023/04/17 09:10:18;;;;;;;13.80;11.60;;;;;;;;;;4855546;29;20087;-82
2023/04/17 09:12:58;;;;;;;13.10;8.00;;;;;;;;;;4846742;29;20108;-81
2023/04/17 09:15:26;;;;;;;8.93;7.90;;;;;;;;;;4856003;29;20069;-82
2023/04/17 09:17:53;;;;;;;8.63;7.82;;;;;;;;;;4858334;29;20488;-80
2023/04/17 09:20:21;;;;;;;9.88;8.93;;;;;;;;;;4859081;29;20143;-81
2023/04/17 09:22:48;;;;;;;16.42;10.73;;;;;;;;;;4852647;29;20053;-81
2023/04/17 09:25:21;;;;;;;12.93;8.65;;;;;;;;;;4860365;29;20117;-81
2023/04/17 09:27:49;;;;;;;11.00;8.57;;;;;;;;;;4860783;29;20109;-82
2023/04/17 09:30:16;;;;;;;9.30;7.05;;;;;;;;;;4858642;29;20443;-82
2023/04/17 09:32:44;;;;;;;8.75;7.95;;;;;;;;;;4861254;29;20085;-81
2023/04/17 09:35:22;;;;;;;8.75;7.85;;;;;;;;;;4863336;29;20102;-82
2023/04/17 09:37:53;;;;;;;7.28;6.57;;;;;;;;;;4864357;29;20065;-81
2023/04/17 09:40:22;;;;;;;8.43;7.63;;;;;;;;;;4867848;29;20091;-81
2023/04/17 09:42:53;;;;;;;10.15;6.95;;;;;;;;;;4864118;29;20329;-81
2023/04/17 09:45:21;;;;;;;10.93;9.15;;;;;;;;;;4860479;29;20057;-80
2023/04/17 09:47:49;;;;;;;9.65;7.93;;;;;;;;;;4858040;29;20050;-80
2023/04/17 09:50:28;;;;;;;9.00;8.10;;;;;;;;;;4857139;29;20053;-85
2023/04/17 09:52:57;;;;;;;9.93;8.80;;;;;;;;;;4859353;29;20058;-82
2023/04/17 09:55:31;;;;;;;13.70;9.10;;;;;;;;;;4859470;29;20117;-82
2023/04/17 09:58:00;;;;;;;11.38;7.43;;;;;;;;;;4856493;29;20195;-82
2023/04/17 10:00:28;;;;;;;7.60;6.90;;;;;;;;;;4862201;29;20054;-80
2023/04/17 10:02:57;;;;;;;8.68;6.90;;;;;;;;;;4865422;29;20057;-84
2023/04/17 10:05:31;;;;;;;8.57;6.88;;;;;;;;;;4864279;29;20184;-82
2023/04/17 10:07:59;;;;;;;7.60;6.95;;;;;;;;;;4865453;29;20089;-81
2023/04/17 10:10:32;;;;;;;8.20;7.40;;;;;;;;;;4869005;29;20058;-83
2023/04/17 10:13:01;;;;;;;7.53;6.82;;;;;;;;;;4863969;29;20050;-82
2023/04/17 10:15:29;;;;;;;7.40;6.80;;;;;;;;;;4861913;29;20517;-81
2023/04/17 10:18:17;;;;;;;6.35;5.78;;;;;;;;;;4858212;29;20045;-82
2023/04/17 10:20:48;;;;;;;6.60;6.00;;;;;;;;;;4856535;29;20080;-80
2023/04/17 10:23:29;;;;;;;6.68;6.07;;;;;;;;;;4856894;29;20061;-81
2023/04/17 10:26:16;;;;;;;5.82;5.10;;;;;;;;;;4859332;29;20100;-80
2023/04/17 10:28:48;;;;;;;5.90;5.40;;;;;;;;;;4857549;29;20054;-81
2023/04/17 10:31:15;;;;;;;6.68;6.03;;;;;;;;;;4848932;29;20274;-81
2023/04/17 10:33:53;;;;;;;6.22;5.50;;;;;;;;;;4848115;29;20054;-80
2023/04/17 10:36:39;;;;;;;6.57;5.82;;;;;;;;;;4850417;29;20176;-82
2023/04/17 10:39:16;;;;;;;9.65;5.85;;;;;;;;;;4861384;29;20753;-81
2023/04/17 10:42:03;;;;;;;6.88;5.55;;;;;;;;;;4858300;29;20083;-82
2023/04/17 10:44:34;;;;;;;6.38;5.88;;;;;;;;;;4857930;29;20073;-81
2023/04/17 10:47:06;;;;;;;7.18;5.32;;;;;;;;;;4861656;29;20128;-81
2023/04/17 10:50:06;;;;;;;5.65;5.22;;;;;;;;;;4864262;29;20053;-82
2023/04/17 10:52:33;;;;;;;4.97;4.57;;;;;;;;;;4822890;29;20065;-81
2023/04/17 10:55:07;;;;;;;5.40;5.00;;;;;;;;;;4862763;29;20045;-81
2023/04/17 10:57:53;;;;;;;6.60;4.75;;;;;;;;;;4865435;29;20061;-82
2023/04/17 11:00:28;;;;;;;7.38;4.70;;;;;;;;;;4860493;29;20073;-83
2023/04/17 11:02:55;;;;;;;4.90;4.50;;;;;;;;;;4864741;29;20540;-83
2023/04/17 11:05:23;;;;;;;4.88;4.45;;;;;;;;;;4863200;29;20164;-82
2023/04/17 11:07:50;;;;;;;5.22;4.72;;;;;;;;;;4859424;29;20092;-82
2023/04/17 11:10:19;;;;;;;4.40;4.07;;;;;;;;;;4857192;29;20053;-80
2023/04/17 11:12:47;;;;;;;4.90;4.50;;;;;;;;;;4852382;29;20113;-82
2023/04/17 11:15:15;;;;;;;4.63;4.25;;;;;;;;;;4853177;29;20497;-82
2023/04/17 11:17:46;;;;;;;5.78;4.65;;;;;;;;;;4854441;29;20105;-82
2023/04/17 11:20:16;;;;;;;;;;;;;;;;;;4857285;29;20049;-81
2023/04/17 11:22:44;;;;;;;4.18;3.88;;;;;;;;;;4853127;29;19976;-80
2023/04/17 11:25:21;;;;;;;4.60;4.30;;;;;;;;;;4859179;29;20053;-81
2023/04/17 11:27:56;;;;;;;5.10;4.70;;;;;;;;;;4854489;29;20053;-81
2023/04/17 11:30:24;;;;;;;5.18;4.78;;;;;;;;;;4854866;29;20503;-83
2023/04/17 11:32:52;;;;;;;4.55;4.15;;;;;;;;;;4861340;29;20469;-81
2023/04/17 11:35:23;;;;;;;4.90;4.50;;;;;;;;;;4864752;29;20076;-82
2023/04/17 11:38:04;;;;;;;4.43;4.13;;;;;;;;;;4860276;29;20065;-82
2023/04/17 11:40:31;;;;;;;4.32;4.03;;;;;;;;;;4865708;29;20059;-81
2023/04/17 11:43:07;;;;;;;4.25;3.95;;;;;;;;;;4856379;29;20053;-81
2023/04/17 11:45:35;;;;;;;3.83;3.63;;;;;;;;;;4858276;29;20485;-82
2023/04/17 11:48:03;;;;;;;4.68;4.30;;;;;;;;;;4862875;29;20087;-81
2023/04/17 11:50:31;;;;;;;3.95;3.65;;;;;;;;;;4859312;29;20065;-82
2023/04/17 11:53:03;;;;;;;4.30;4.00;;;;;;;;;;4860478;29;20088;-80
2023/04/17 11:55:30;;;;;;;27.13;17.23;;;;;;;;;;4859392;29;20483;-80
2023/04/17 11:57:59;;;;;;;6.70;4.20;;;;;;;;;;4860400;29;20057;-83
2023/04/17 12:00:30;;;;;;;3.85;3.65;;;;;;;;;;4859745;29;20049;-80
2023/04/17 12:02:58;;;;;;;7.57;3.78;;;;;;;;;;4859169;29;20079;-81
2023/04/17 12:05:26;;;;;;;13.77;4.45;;;;;;;;;;4859929;29;20064;-82
2023/04/17 12:08:01;;;;;;;4.60;4.20;;;;;;;;;;4857883;29;20064;-82
2023/04/17 12:10:36;;;;;;;5.90;5.40;;;;;;;;;;4859166;29;20049;-83
2023/04/17 12:13:07;;;;;;;5.47;5.07;;;;;;;;;;4858444;29;20055;-81
2023/04/17 12:15:35;;;;;;;3.83;3.53;;;;;;;;;;4854477;29;20097;-82
2023/04/17 12:18:08;;;;;;;4.50;4.10;;;;;;;;;;4853508;29;20057;-80
2023/04/17 12:20:36;;;;;;;4.93;4.60;;;;;;;;;;4854597;29;20039;-80
2023/04/17 12:23:04;;;;;;;3.50;3.30;;;;;;;;;;4858100;29;20058;-80
2023/04/17 12:25:32;;;;;;;4.88;3.88;;;;;;;;;;4857206;29;20058;-80
2023/04/17 12:28:03;;;;;;;4.05;3.65;;;;;;;;;;4858467;29;20495;-80
2023/04/17 12:30:34;;;;;;;3.80;3.50;;;;;;;;;;4854278;29;20220;-81
2023/04/17 12:33:02;;;;;;;5.60;5.10;;;;;;;;;;4853011;29;20046;-81
2023/04/17 12:35:30;;;;;;;4.45;4.15;;;;;;;;;;4851712;29;20054;-80
2023/04/17 12:37:57;;;;;;;9.48;8.73;;;;;;;;;;4853956;29;20049;-82
2023/04/17 12:40:25;;;;;;;4.60;4.30;;;;;;;;;;4854579;29;20042;-81
2023/04/17 12:42:52;;;;;;;7.95;6.10;;;;;;;;;;4856777;29;20061;-80
2023/04/17 12:45:20;;;;;;;3.92;3.67;;;;;;;;;;4848278;29;20102;-79
2023/04/17 12:47:48;;;;;;;2.22;2.13;;;;;;;;;;4852486;29;20073;-82
2023/04/17 12:50:15;;;;;;;3.60;3.35;;;;;;;;;;4846019;29;20053;-79
2023/04/17 12:52:43;;;;;;;2.40;2.30;;;;;;;;;;4851355;29;20584;-79
2023/04/17 12:55:10;;;;;;;2.65;2.55;;;;;;;;;;4852198;29;20054;-81
2023/04/17 12:57:38;;;;;;;2.97;2.17;;;;;;;;;;4851506;29;20063;-79
2023/04/17 13:00:07;;;;;;;2.65;2.40;;;;;;;;;;4851906;29;20104;-79
2023/04/17 13:02:35;;;;;;;3.03;2.83;;;;;;;;;;4853082;29;20209;-81
2023/04/17 13:05:07;;;;;;;3.65;3.35;;;;;;;;;;4851518;29;20125;-80
2023/04/17 13:07:34;;;;;;;3.58;3.38;;;;;;;;;;4844785;29;20057;-81
2023/04/17 13:10:02;;;;;;;4.40;3.30;;;;;;;;;;4855028;29;20053;-79
2023/04/17 13:12:29;;;;;;;5.18;4.68;;;;;;;;;;4849328;29;20766;-78
2023/04/17 13:14:57;;;;;;;4.20;3.80;;;;;;;;;;4853079;29;20576;-80
2023/04/17 13:17:25;;;;;;;4.90;3.95;;;;;;;;;;4852011;29;20096;-79
2023/04/17 13:19:53;;;;;;;4.60;4.20;;;;;;;;;;4858405;29;20048;-79
2023/04/17 13:22:21;;;;;;;3.95;3.65;;;;;;;;;;4858206;29;20145;-79
2023/04/17 13:24:48;;;;;;;4.95;4.55;;;;;;;;;;4857999;29;20524;-79
2023/04/17 13:27:16;;;;;;;4.55;4.18;;;;;;;;;;4857112;29;20097;-80
2023/04/17 13:29:43;;;;;;;4.38;3.95;;;;;;;;;;4853236;29;20564;-81
2023/04/17 13:32:10;;;;;;;4.60;4.20;;;;;;;;;;4855095;29;20068;-78
2023/04/17 13:34:38;;;;;;;4.03;3.72;;;;;;;;;;4851912;29;20053;-81
2023/04/17 13:37:06;;;;;;;3.40;3.20;;;;;;;;;;4853819;29;20085;-78
2023/04/17 13:39:34;;;;;;;6.53;5.60;;;;;;;;;;4855080;29;20057;-78
2023/04/17 13:42:02;;;;;;;3.25;2.92;;;;;;;;;;4852157;29;20136;-80
2023/04/17 13:44:30;;;;;;;3.38;2.70;;;;;;;;;;4851847;29;20045;-78
2023/04/17 13:46:58;;;;;;;3.15;2.90;;;;;;;;;;4849350;29;20166;-78
2023/04/17 13:49:28;;;;;;;3.47;3.28;;;;;;;;;;4858157;29;20046;-79
2023/04/17 13:51:56;;;;;;;2.80;2.63;;;;;;;;;;4850285;29;20166;-79
2023/04/17 13:54:24;;;;;;;2.75;2.60;;;;;;;;;;4845507;29;20176;-81
2023/04/17 13:56:53;;;;;;;4.32;2.83;;;;;;;;;;4847314;29;20568;-80
2023/04/17 13:59:20;;;;;;;4.13;2.95;;;;;;;;;;4837415;29;20335;-80
2023/04/17 14:01:48;;;;;;;2.45;2.35;;;;;;;;;;4843080;29;20053;-79
2023/04/17 14:04:15;;;;;;;3.03;2.83;;;;;;;;;;4849072;29;20041;-81
2023/04/17 14:06:53;;;;;;;2.75;2.65;;;;;;;;;;4912396;24;20068;-84
2023/04/17 14:09:33;;;;;;;3.45;3.17;;;;;;;;;;4832030;29;20484;-83
2023/04/17 14:15:05;;;;;;;2.53;2.33;;;;;;;;;;4833817;29;20048;-85
2023/04/17 14:17:41;;;;;;;2.60;2.40;;;;;;;;;;4826870;29;20635;-84
2023/04/17 14:20:16;;;;;;;3.17;3.00;;;;;;;;;;4826750;29;20112;-84
2023/04/17 14:22:46;;;;;;;3.10;2.90;;;;;;;;;;4822084;29;20050;-87
2023/04/17 14:25:14;;;;;;;2.75;2.55;;;;;;;;;;4822696;29;20046;-83
2023/04/17 14:27:41;;;;;;;2.90;2.70;;;;;;;;;;4822771;29;20050;-85
2023/04/17 14:30:09;;;;;;;3.33;2.85;;;;;;;;;;4821980;29;20078;-84
2023/04/17 14:32:59;;;;;;;3.15;2.40;;;;;;;;;;4833982;29;20061;-83
2023/04/17 14:35:27;;;;;;;32.30;28.25;;;;;;;;;;4835502;29;20141;-84
2023/04/17 14:37:58;;;;;;;3.00;2.80;;;;;;;;;;4827738;29;20130;-84
2023/04/17 14:40:25;;;;;;;2.92;2.70;;;;;;;;;;4829458;29;20054;-84
2023/04/17 14:43:08;;;;;;;3.58;2.50;;;;;;;;;;4823169;29;20066;-84
2023/04/17 14:45:43;;;;;;;3.42;2.30;;;;;;;;;;4822755;29;20089;-84
2023/04/17 14:48:15;;;;;;;2.80;2.60;;;;;;;;;;4816793;29;20146;-84
2023/04/17 14:50:51;;;;;;;10.85;6.00;;;;;;;;;;4822770;29;20148;-88
2023/04/17 14:53:41;;;;;;;2.00;1.90;;;;;;;;;;4821234;29;20161;-84
2023/04/17 14:56:08;;;;;;;2.72;2.50;;;;;;;;;;4821367;29;20462;-83